LZIB Airport Information

Runway Information
Runway 04 Length 9515 ft width 197 ft
Elevation 436 ft Threshold 0 ft Heading 44
Runway 22 Length 9515 ft Width 197 ft
Elevation 430 ft Threshold 0 ft Heading 224
Runway 13 Length 10466 ft width 148 ft
Elevation 433 ft Threshold 0 ft Heading 134
Runway 31 Length 10466 ft Width 148 ft
Elevation 434 ft Threshold 777 ft Heading 314
Airport Frequencies
Type APP Name APP Frequency 120.9 MHZ
Type ATIS Name ATIS Frequency 128.65 MHZ
Type TWR Name TWR Frequency 118.3 MHZ
Airport Navaids
Type VOR-DME Name Janovce Frequency 110800 KHZ
Type NDB Name Stefanik South Frequency 330 KHZ
Type NDB Name Stefanik North Frequency 391 KHZ
Airport Weather Information & NOTAM
ADDS - METARS form results

(1804 UTC 08 August 2020)
Data provider http://aviationweather.gov/metar/data/
 
METAR text: LZIB 081800Z 35004KT CAVOK 29/15 Q1018 NOSIG
Conditions at: LZIB (BRATISLAVA IVANK, SK) observed 1800 UTC 08 August 2020
Temperature: 29.0°C (84°F)
Dewpoint: 15.0°C (59°F) [RH = 43%]
Pressure (altimeter): 30.06 inches Hg (1018.0 mb)
Winds: from the N (350 degrees) at 5 MPH (4 knots; 2.1 m/s)
Visibility: 6 or more miles (10+ km)
Ceiling: ceiling and visibility are OK
Clouds: unknown
Weather: no significant weather observed at this time

METAR text: LZIB 081730Z 35003KT 310V010 CAVOK 31/14 Q1018 NOSIG
Conditions at: LZIB (BRATISLAVA IVANK, SK) observed 1730 UTC 08 August 2020
Temperature: 31.0°C (88°F)
Dewpoint: 14.0°C (57°F) [RH = 36%]
Pressure (altimeter): 30.06 inches Hg (1018.0 mb)
Winds: from the N (350 degrees) at 3 MPH (3 knots; 1.5 m/s)
Visibility: 6 or more miles (10+ km)
Ceiling: ceiling and visibility are OK
Clouds: unknown
Weather: no significant weather observed at this time

Forecast for: LZIB (BRATISLAVA IVANK, SK)
Text: TAF LZIB 081700Z 0818/0918 33005KT CAVOK
Forecast period: 1800 UTC 08 August 2020 to 1000 UTC 09 August 2020
Forecast type: FROM: standard forecast or significant change
Winds: from the NNW (330 degrees) at 6 MPH (5 knots; 2.6 m/s)
Visibility: 6 or more miles (10+ km)
Ceiling: unknown
Clouds: missing
Weather: NSW  (no significant weather)
Text: BECMG 0910/0912 04006KT
Forecast period: 1000 to 1800 UTC 09 August 2020
Forecast type: BECOMING: Conditions expected to become as follows by 1200 UTC 09 August 2020
Winds: from the NE (40 degrees) at 7 MPH (6 knots; 3.1 m/s)
Visibility: 6 or more miles (10+ km)
Ceiling: unknown
Clouds: missing
Weather: NSW  (no significant weather)
Text: TEMPO 0912/0915 9999 SCT045
Forecast period: 1200 to 1500 UTC 09 August 2020
Forecast type: TEMPORARY: The following changes expected for less than half the time period
Visibility: 6 or more miles (10+ km)
Ceiling: at least 12,000 feet AGL
Clouds: scattered clouds at 4500 feet AGL
Weather: no significant weather forecast for this period